Item Display Status Serial CT Sensor

Mooring Depth: 1 m

 

Deployed Sensor

  • Serial Number: 12431
  • NDBC Property Number: 38897
  • Start Date: 4/19/2019 (15:50:20 Z)
  • End Date: 3/20/2020 (17:45:00 Z)
Water Temperature [°C]     6 entries per hour
Showing data from 3/20/2020 (17:40:00 Z) to 3/19/2020 (00:00:01 Z)
Previous Next [ Day | 3-Days | 7-Days ]
First Last
Prev [ Day | 3-Days | 7-Days ] Next
First Last

Start Time:     :
End Time:     :     
Time (in GMT) :00 :50 :40 :30 :20 :10
Previous Next [ Day | 3-Days | 7-Days ]
First Last
Prev [ Day | 3-Days | 7-Days ] Next
First Last


123 => good data
MM => data is determined as missing
-- => data not received/configured
Back to Top Back to Top
3/20/2020 18:00 to 17:10 -- -- 26.972 26.965 26.973 26.962
3/20/2020 17:00 to 16:10 26.943 26.933 26.940 26.944 26.954 26.948
3/20/2020 16:00 to 15:10 26.943 26.928 -- -- 26.922 26.937
3/20/2020 15:00 to 14:10 26.949 26.967 26.978 26.989 26.971 26.957
3/20/2020 14:00 to 13:10 26.939 26.958 26.953 26.978 26.983 26.961
3/20/2020 13:00 to 12:10 26.982 26.980 26.984 26.977 26.953 26.992
3/20/2020 12:00 to 11:10 27.001 26.994 26.981 -- 27.052 27.056
3/20/2020 11:00 to 10:10 27.066 27.065 27.058 27.046 27.074 27.063
3/20/2020 10:00 to 9:10 27.079 27.075 27.066 27.086 27.071 27.089
3/20/2020 09:00 to 8:10 27.097 27.100 27.096 27.117 27.124 27.147
3/20/2020 08:00 to 7:10 27.172 27.191 27.201 27.207 27.203 27.190
3/20/2020 07:00 to 6:10 27.176 27.194 27.213 27.229 27.242 27.257
3/20/2020 06:00 to 5:10 27.268 27.243 27.272 27.289 27.304 27.298
3/20/2020 05:00 to 4:10 27.318 27.290 27.311 27.315 27.308 27.371
3/20/2020 04:00 to 3:10 27.334 27.375 27.388 27.397 27.404 27.387
3/20/2020 03:00 to 2:10 27.384 27.409 27.396 27.437 27.428 27.497
3/20/2020 02:00 to 1:10 27.441 27.529 27.543 27.599 27.526 27.621
3/20/2020 01:00 to 0:10 27.598 27.494 27.624 27.576 27.559 27.466
3/20/2020 00:00 to 23:10 27.609 27.558 27.530 27.523 27.537 27.430
3/19/2020 23:00 to 22:10 27.473 27.516 27.533 27.474 27.494 27.472
3/19/2020 22:00 to 21:10 27.477 27.422 27.407 27.364 27.388 27.383
3/19/2020 21:00 to 20:10 27.317 27.310 27.288 27.297 27.220 27.215
3/19/2020 20:00 to 19:10 27.213 27.230 27.290 27.202 27.172 27.224
3/19/2020 19:00 to 18:10 27.179 27.186 27.171 27.165 27.162 27.166
3/19/2020 18:00 to 17:10 27.140 27.155 27.130 27.125 27.139 27.172
3/19/2020 17:00 to 16:10 27.182 27.181 27.173 27.169 27.172 27.172
3/19/2020 16:00 to 15:10 27.174 27.177 27.171 27.179 27.174 27.202
3/19/2020 15:00 to 14:10 27.180 27.192 27.183 27.189 27.186 27.193
3/19/2020 14:00 to 13:10 27.202 27.192 27.217 27.201 27.227 27.214
3/19/2020 13:00 to 12:10 27.209 27.190 27.215 27.262 27.283 27.297
3/19/2020 12:00 to 11:10 27.294 27.321 27.340 27.312 27.301 27.330
3/19/2020 11:00 to 10:10 27.349 27.357 27.323 27.379 27.347 27.380
3/19/2020 10:00 to 9:10 27.411 27.405 27.399 27.425 27.421 27.412
3/19/2020 09:00 to 8:10 27.427 27.433 27.402 27.410 27.429 27.446
3/19/2020 08:00 to 7:10 27.445 27.451 27.440 27.440 27.432 27.452
3/19/2020 07:00 to 6:10 27.468 27.469 27.492 27.510 27.525 27.513
3/19/2020 06:00 to 5:10 27.518 27.534 27.566 27.577 27.583 27.564
3/19/2020 05:00 to 4:10 27.570 27.579 27.613 27.600 27.577 27.613
3/19/2020 04:00 to 3:10 27.615 27.669 27.645 27.685 27.679 27.677
3/19/2020 03:00 to 2:10 27.698 27.729 27.759 27.718 27.722 27.742
3/19/2020 02:00 to 1:10 27.719 27.798 27.782 27.817 27.771 27.810
3/19/2020 01:00 to 0:10 27.838 27.860 27.855 27.867 27.872 27.887

 

 

 

Conductivity [S/m]     6 entries per hour
Showing data from 3/20/2020 (17:40:00 Z) to 3/19/2020 (00:00:01 Z)
Previous Next [ Day | 3-Days | 7-Days ]
First Last
Prev [ Day | 3-Days | 7-Days ] Next
First Last

Start Time:     :
End Time:     :     
Time (in GMT) :00 :50 :40 :30 :20 :10
Previous Next [ Day | 3-Days | 7-Days ]
First Last
Prev [ Day | 3-Days | 7-Days ] Next
First Last


123 => good data
MM => data is determined as missing
-- => data not received/configured
Back to Top Back to Top
3/20/2020 18:00 to 17:10 -- -- 5.52310 5.52174 5.52296 5.52133
3/20/2020 17:00 to 16:10 5.51882 5.51774 5.51910 5.51815 5.51990 5.52043
3/20/2020 16:00 to 15:10 5.51925 5.51836 5.51929 5.51896 5.51779 5.51854
3/20/2020 15:00 to 14:10 5.51999 5.52220 5.52329 5.52428 5.52277 5.52135
3/20/2020 14:00 to 13:10 5.51920 5.52103 5.52070 5.52313 5.52376 5.52143
3/20/2020 13:00 to 12:10 5.52329 5.52316 5.52361 5.52283 5.52101 5.52404
3/20/2020 12:00 to 11:10 5.52577 5.52452 5.52308 5.52891 5.53069 5.53094
3/20/2020 11:00 to 10:10 5.53217 5.53195 5.53116 5.53020 5.53298 5.53170
3/20/2020 10:00 to 9:10 5.53350 5.53311 5.53160 5.53416 5.53271 5.53418
3/20/2020 09:00 to 8:10 5.53491 5.53522 5.53554 5.53724 5.53806 5.54048
3/20/2020 08:00 to 7:10 5.54340 5.54541 5.54617 5.54688 5.54662 5.54550
3/20/2020 07:00 to 6:10 5.54354 5.54567 5.54735 5.54862 5.55057 5.55174
3/20/2020 06:00 to 5:10 5.55275 5.54942 5.55092 5.55588 5.55763 5.55708
3/20/2020 05:00 to 4:10 5.55955 5.55666 5.55883 5.55889 5.55790 5.56494
3/20/2020 04:00 to 3:10 5.56113 5.56533 5.56714 5.56561 5.56737 5.56669
3/20/2020 03:00 to 2:10 5.56528 5.56888 5.56573 5.57289 5.57077 5.57857
3/20/2020 02:00 to 1:10 5.57309 5.58147 5.58630 5.58720 5.58163 5.59102
3/20/2020 01:00 to 0:10 5.58948 5.57713 5.59197 5.58549 5.58363 5.57388
3/20/2020 00:00 to 23:10 5.58817 5.58318 5.57994 5.57969 5.58120 5.57222
3/19/2020 23:00 to 22:10 5.57296 5.57867 5.57999 5.57521 5.57676 5.57388
3/19/2020 22:00 to 21:10 5.57420 5.56861 5.56743 5.56149 5.56420 5.56402
3/19/2020 21:00 to 20:10 5.55672 5.55619 5.55517 5.55392 5.54643 5.54705
3/19/2020 20:00 to 19:10 5.54486 5.54725 5.55208 5.54458 5.54075 5.54620
3/19/2020 19:00 to 18:10 5.54010 5.54247 5.54065 5.53972 5.53975 5.53981
3/19/2020 18:00 to 17:10 5.53708 5.53907 5.53567 5.53515 5.53640 5.54017
3/19/2020 17:00 to 16:10 5.54116 5.54078 5.53979 5.53995 5.53961 5.53936
3/19/2020 16:00 to 15:10 5.53945 5.53991 5.53950 5.54095 5.53973 5.54266
3/19/2020 15:00 to 14:10 5.54062 5.54119 5.53986 5.54096 5.54044 5.54087
3/19/2020 14:00 to 13:10 5.54188 5.54087 5.54343 5.54194 5.54483 5.54321
3/19/2020 13:00 to 12:10 5.54289 5.54069 5.54380 5.54782 5.55052 5.55152
3/19/2020 12:00 to 11:10 5.55115 5.55391 5.55584 5.55285 5.55186 5.55459
3/19/2020 11:00 to 10:10 5.55634 5.55715 5.55319 5.55883 5.55553 5.55931
3/19/2020 10:00 to 9:10 5.56200 5.56197 5.56015 5.56363 5.56329 5.56157
3/19/2020 09:00 to 8:10 5.56339 5.56399 5.56016 5.56132 5.56272 5.56431
3/19/2020 08:00 to 7:10 5.56405 5.56474 5.56416 5.56325 5.56313 5.56435
3/19/2020 07:00 to 6:10 5.56556 5.56650 5.56843 5.56995 5.57185 5.56995
3/19/2020 06:00 to 5:10 5.57041 5.57223 5.57557 5.57696 5.57718 5.57469
3/19/2020 05:00 to 4:10 5.57519 5.57639 5.57980 5.57857 5.57571 5.57910
3/19/2020 04:00 to 3:10 5.58008 5.58458 5.58226 5.58668 5.58562 5.58562
3/19/2020 03:00 to 2:10 5.58779 5.59102 5.59380 5.58973 5.58994 5.59163
3/19/2020 02:00 to 1:10 5.58961 5.59720 5.59660 5.59845 5.59428 5.59872
3/19/2020 01:00 to 0:10 5.60119 5.60462 5.60232 5.60425 5.60451 5.60650

 

 

 

Salinity [psu]     6 entries per hour
Showing data from 3/20/2020 (17:40:00 Z) to 3/19/2020 (00:00:01 Z)
Previous Next [ Day | 3-Days | 7-Days ]
First Last
Prev [ Day | 3-Days | 7-Days ] Next
First Last

Start Time:     :
End Time:     :     
Time (in GMT) :00 :50 :40 :30 :20 :10
Previous Next [ Day | 3-Days | 7-Days ]
First Last
Prev [ Day | 3-Days | 7-Days ] Next
First Last


123 => good data
MM => data is determined as missing
-- => data not received/configured
Back to Top Back to Top
3/20/2020 18:00 to 17:10 -- -- 35.06 35.06 35.06 35.06
3/20/2020 17:00 to 16:10 35.06 35.06 35.06 35.05 35.05 35.06
3/20/2020 16:00 to 15:10 35.06 35.06 -- -- 35.06 35.06
3/20/2020 15:00 to 14:10 35.06 35.06 35.06 35.06 35.06 35.06
3/20/2020 14:00 to 13:10 35.06 35.06 35.06 35.06 35.06 35.06
3/20/2020 13:00 to 12:10 35.06 35.06 35.06 35.06 35.06 35.06
3/20/2020 12:00 to 11:10 35.06 35.06 35.06 -- 35.06 35.06
3/20/2020 11:00 to 10:10 35.06 35.06 35.06 35.06 35.06 35.06
3/20/2020 10:00 to 9:10 35.06 35.06 35.05 35.06 35.06 35.05
3/20/2020 09:00 to 8:10 35.05 35.05 35.06 35.06 35.06 35.06
3/20/2020 08:00 to 7:10 35.06 35.06 35.06 35.06 35.06 35.06
3/20/2020 07:00 to 6:10 35.06 35.06 35.06 35.05 35.06 35.05
3/20/2020 06:00 to 5:10 35.05 35.05 35.04 35.06 35.06 35.06
3/20/2020 05:00 to 4:10 35.06 35.06 35.06 35.06 35.06 35.06
3/20/2020 04:00 to 3:10 35.06 35.06 35.06 35.05 35.05 35.06
3/20/2020 03:00 to 2:10 35.05 35.06 35.05 35.07 35.06 35.06
3/20/2020 02:00 to 1:10 35.07 35.06 35.08 35.05 35.06 35.06
3/20/2020 01:00 to 0:10 35.07 35.06 35.06 35.05 35.05 35.05
3/20/2020 00:00 to 23:10 35.05 35.05 35.05 35.05 35.05 35.07
3/19/2020 23:00 to 22:10 35.04 35.05 35.05 35.06 35.05 35.05
3/19/2020 22:00 to 21:10 35.05 35.05 35.05 35.04 35.04 35.05
3/19/2020 21:00 to 20:10 35.04 35.05 35.05 35.04 35.04 35.05
3/19/2020 20:00 to 19:10 35.04 35.04 35.03 35.04 35.04 35.04
3/19/2020 19:00 to 18:10 35.03 35.04 35.04 35.04 35.04 35.04
3/19/2020 18:00 to 17:10 35.04 35.04 35.03 35.03 35.03 35.03
3/19/2020 17:00 to 16:10 35.03 35.03 35.03 35.04 35.03 35.03
3/19/2020 16:00 to 15:10 35.03 35.03 35.03 35.04 35.03 35.03
3/19/2020 15:00 to 14:10 35.03 35.03 35.02 35.03 35.03 35.02
3/19/2020 14:00 to 13:10 35.02 35.03 35.02 35.03 35.03 35.03
3/19/2020 13:00 to 12:10 35.03 35.03 35.03 35.02 35.03 35.02
3/19/2020 12:00 to 11:10 35.02 35.02 35.02 35.02 35.02 35.02
3/19/2020 11:00 to 10:10 35.02 35.02 35.01 35.01 35.01 35.01
3/19/2020 10:00 to 9:10 35.01 35.02 35.01 35.01 35.01 35.01
3/19/2020 09:00 to 8:10 35.01 35.01 35.00 35.01 35.00 35.00
3/19/2020 08:00 to 7:10 35.00 35.00 35.00 35.00 35.00 35.00
3/19/2020 07:00 to 6:10 34.99 35.00 35.00 34.99 35.00 34.99
3/19/2020 06:00 to 5:10 34.99 34.99 34.99 34.99 34.99 34.99
3/19/2020 05:00 to 4:10 34.98 34.99 34.99 34.99 34.98 34.98
3/19/2020 04:00 to 3:10 34.99 34.98 34.98 34.98 34.98 34.98
3/19/2020 03:00 to 2:10 34.98 34.98 34.98 34.98 34.98 34.97
3/19/2020 02:00 to 1:10 34.98 34.97 34.98 34.96 34.97 34.97
3/19/2020 01:00 to 0:10 34.97 34.98 34.96 34.97 34.97 34.97